Time,TemperatureF,DewpointF,PressureIn,WindDirection,WindDirectionDegrees,WindSpeedMPH,WindSpeedGustMPH,Humidity,HourlyPrecipIn,Conditions,Clouds,dailyrainin,SoftwareType,DateUTC
2013-10-12 00:05:00,48.3,42.7,30.42,WNW,295,3.0,15.0,81,0.00,,,0.00,Wunderground v.1.15,2013-10-12 03:05:00,
2013-10-12 00:10:00,48.3,43.1,30.42,NW,320,2.0,15.0,82,0.00,,,0.00,Wunderground v.1.15,2013-10-12 03:10:00,
2013-10-12 00:15:00,48.3,42.7,30.42,NW,315,2.0,15.0,81,0.00,,,0.00,Wunderground v.1.15,2013-10-12 03:15:00,
2013-10-12 00:20:00,48.2,42.3,30.42,NW,314,3.0,15.0,80,0.00,,,0.00,Wunderground v.1.15,2013-10-12 03:20:00,
2013-10-12 00:25:00,48.3,42.7,30.42,NW,319,2.0,15.0,81,0.00,,,0.00,Wunderground v.1.15,2013-10-12 03:25:00,
2013-10-12 00:30:00,48.3,42.4,30.42,NW,307,2.0,15.0,80,0.00,,,0.00,Wunderground v.1.15,2013-10-12 03:30:00,
2013-10-12 00:40:00,48.2,42.6,30.42,NW,304,2.0,15.0,81,0.00,,,0.00,Wunderground v.1.15,2013-10-12 03:40:00,
2013-10-12 00:45:00,48.3,42.4,30.42,NW,304,3.0,15.0,80,0.00,,,0.00,Wunderground v.1.15,2013-10-12 03:45:00,
2013-10-12 00:50:00,48.2,42.0,30.42,West,281,3.0,3.0,79,0.00,,,0.00,Wunderground v.1.15,2013-10-12 03:50:00,
2013-10-12 00:55:00,48.1,41.9,30.42,NW,304,3.0,15.0,79,0.00,,,0.00,Wunderground v.1.15,2013-10-12 03:55:00,
2013-10-12 01:00:00,48.1,41.9,30.42,WNW,298,2.0,15.0,79,0.00,,,0.00,Wunderground v.1.15,2013-10-12 04:00:00,
2013-10-12 01:05:00,47.9,41.4,30.42,NW,316,2.0,15.0,78,0.00,,,0.00,Wunderground v.1.15,2013-10-12 04:05:00,
2013-10-12 01:10:00,47.9,41.7,30.42,WNW,301,2.0,15.0,79,0.00,,,0.00,Wunderground v.1.15,2013-10-12 04:10:00,
2013-10-12 01:15:00,47.8,41.6,30.42,NW,309,2.0,15.0,79,0.00,,,0.00,Wunderground v.1.15,2013-10-12 04:15:00,
2013-10-12 01:20:00,47.7,41.2,30.42,NNW,342,2.0,15.0,78,0.00,,,0.00,Wunderground v.1.15,2013-10-12 04:20:00,
2013-10-12 01:25:00,47.7,41.2,30.42,WNW,287,2.0,15.0,78,0.00,,,0.00,Wunderground v.1.15,2013-10-12 04:25:00,
2013-10-12 01:30:00,47.8,42.3,30.42,NNW,336,2.0,15.0,81,0.00,,,0.00,Wunderground v.1.15,2013-10-12 04:30:00,
2013-10-12 01:40:00,47.6,41.1,30.43,West,277,2.0,2.0,78,0.00,,,0.00,Wunderground v.1.15,2013-10-12 04:40:00,
2013-10-12 01:45:00,47.6,41.4,30.43,North,354,2.0,15.0,79,0.00,,,0.00,Wunderground v.1.15,2013-10-12 04:45:00,
2013-10-12 01:50:00,47.6,41.1,30.43,WNW,292,2.0,15.0,78,0.00,,,0.00,Wunderground v.1.15,2013-10-12 04:50:00,
2013-10-12 01:55:00,47.5,41.0,30.43,NW,314,2.0,15.0,78,0.00,,,0.00,Wunderground v.1.15,2013-10-12 04:55:00,
2013-10-12 02:00:00,47.4,40.9,30.43,WNW,300,2.0,15.0,78,0.00,,,0.00,Wunderground v.1.15,2013-10-12 05:00:00,
2013-10-12 02:05:00,47.3,40.5,30.43,NW,315,2.0,15.0,77,0.00,,,0.00,Wunderground v.1.15,2013-10-12 05:05:00,
2013-10-12 02:15:00,47.3,40.8,30.43,WNW,292,2.0,15.0,78,0.00,,,0.00,Wunderground v.1.15,2013-10-12 05:15:00,
2013-10-12 02:20:00,47.2,40.4,30.43,WNW,298,2.0,15.0,77,0.00,,,0.00,Wunderground v.1.15,2013-10-12 05:20:00,
2013-10-12 02:25:00,47.1,40.3,30.43,WNW,284,2.0,15.0,77,0.00,,,0.00,Wunderground v.1.15,2013-10-12 05:25:00,
2013-10-12 02:30:00,47.0,40.2,30.43,NW,304,2.0,15.0,77,0.00,,,0.00,Wunderground v.1.15,2013-10-12 05:30:00,
2013-10-12 02:35:00,47.1,40.6,30.43,West,281,2.0,15.0,78,0.00,,,0.00,Wunderground v.1.15,2013-10-12 05:35:00,
2013-10-12 02:45:00,47.0,39.8,30.43,West,271,2.0,15.0,76,0.00,,,0.00,Wunderground v.1.15,2013-10-12 05:45:00,
2013-10-12 02:50:00,46.9,39.4,30.43,WNW,291,3.0,3.0,75,0.00,,,0.00,Wunderground v.1.15,2013-10-12 05:50:00,
2013-10-12 02:55:00,46.8,39.3,30.43,WNW,302,2.0,15.0,75,0.00,,,0.00,Wunderground v.1.15,2013-10-12 05:55:00,
2013-10-12 03:00:00,46.7,39.2,30.44,WNW,299,2.0,15.0,75,0.00,,,0.00,Wunderground v.1.15,2013-10-12 06:00:00,
2013-10-12 03:05:00,46.7,39.2,30.44,NW,307,2.0,15.0,75,0.00,,,0.00,Wunderground v.1.15,2013-10-12 06:05:00,
2013-10-12 03:10:00,46.7,39.2,30.44,NW,304,2.0,15.0,75,0.00,,,0.00,Wunderground v.1.15,2013-10-12 06:10:00,
2013-10-12 03:20:00,47.1,39.9,30.44,NW,315,3.0,15.0,76,0.00,,,0.00,Wunderground v.1.15,2013-10-12 06:20:00,
2013-10-12 03:25:00,47.1,39.2,30.44,NW,307,3.0,15.0,74,0.00,,,0.00,Wunderground v.1.15,2013-10-12 06:25:00,
2013-10-12 03:30:00,47.0,39.1,30.44,NNW,327,3.0,15.0,74,0.00,,,0.00,Wunderground v.1.15,2013-10-12 06:30:00,
2013-10-12 03:35:00,46.8,39.3,30.44,WNW,302,3.0,15.0,75,0.00,,,0.00,Wunderground v.1.15,2013-10-12 06:35:00,
2013-10-12 03:40:00,46.8,40.0,30.44,NW,308,2.0,2.0,77,0.00,,,0.00,Wunderground v.1.15,2013-10-12 06:40:00,
2013-10-12 03:50:00,47.0,39.5,30.44,NW,321,2.0,15.0,75,0.00,,,0.00,Wunderground v.1.15,2013-10-12 06:50:00,
2013-10-12 03:55:00,46.9,38.7,30.45,NW,316,3.0,15.0,73,0.00,,,0.00,Wunderground v.1.15,2013-10-12 06:55:00,
2013-10-12 04:00:00,46.8,38.9,30.45,NW,315,3.0,3.0,74,0.00,,,0.00,Wunderground v.1.15,2013-10-12 07:00:00,
2013-10-12 04:05:00,46.8,39.3,30.45,NW,316,2.0,15.0,75,0.00,,,0.00,Wunderground v.1.15,2013-10-12 07:05:00,
2013-10-12 04:10:00,46.7,39.5,30.45,NNW,329,2.0,15.0,76,0.00,,,0.00,Wunderground v.1.15,2013-10-12 07:10:00,
2013-10-12 04:15:00,46.7,39.2,30.45,NW,314,3.0,15.0,75,0.00,,,0.00,Wunderground v.1.15,2013-10-12 07:15:00,
2013-10-12 04:25:00,46.5,39.3,30.46,WNW,293,2.0,15.0,76,0.00,,,0.00,Wunderground v.1.15,2013-10-12 07:25:00,
2013-10-12 04:30:00,46.5,39.0,30.46,NW,308,2.0,15.0,75,0.00,,,0.00,Wunderground v.1.15,2013-10-12 07:30:00,
2013-10-12 04:35:00,46.5,38.3,30.46,NW,319,3.0,15.0,73,0.00,,,0.00,Wunderground v.1.15,2013-10-12 07:35:00,
2013-10-12 04:40:00,46.4,38.2,30.46,WNW,292,3.0,3.0,73,0.00,,,0.00,Wunderground v.1.15,2013-10-12 07:40:00,
2013-10-12 04:45:00,46.3,38.5,30.47,NW,307,3.0,15.0,74,0.00,,,0.00,Wunderground v.1.15,2013-10-12 07:45:00,
2013-10-12 04:50:00,46.2,37.7,30.47,NW,316,3.0,3.0,72,0.00,,,0.00,Wunderground v.1.15,2013-10-12 07:50:00,
2013-10-12 04:55:00,46.1,37.2,30.47,WNW,303,3.0,15.0,71,0.00,,,0.00,Wunderground v.1.15,2013-10-12 07:55:00,
2013-10-12 05:00:00,46.1,37.6,30.47,NW,307,3.0,15.0,72,0.00,,,0.00,Wunderground v.1.15,2013-10-12 08:00:00,
2013-10-12 05:05:00,46.1,37.2,30.47,NW,307,3.0,15.0,71,0.00,,,0.00,Wunderground v.1.15,2013-10-12 08:05:00,
2013-10-12 05:10:00,46.3,38.5,30.47,WNW,297,2.0,2.0,74,0.00,,,0.00,Wunderground v.1.15,2013-10-12 08:10:00,
2013-10-12 05:15:00,46.4,38.2,30.48,West,269,2.0,3.0,73,0.00,,,0.00,Wunderground v.1.15,2013-10-12 08:15:00,
2013-10-12 05:25:00,46.4,37.9,30.48,NW,307,3.0,15.0,72,0.00,,,0.00,Wunderground v.1.15,2013-10-12 08:25:00,
2013-10-12 05:30:00,46.4,38.2,30.48,NW,304,2.0,2.0,73,0.00,,,0.00,Wunderground v.1.15,2013-10-12 08:30:00,
2013-10-12 05:35:00,46.5,37.6,30.48,NW,315,2.0,15.0,71,0.00,,,0.00,Wunderground v.1.15,2013-10-12 08:35:00,
2013-10-12 05:40:00,46.7,37.8,30.48,NW,304,3.0,3.0,71,0.00,,,0.00,Wunderground v.1.15,2013-10-12 08:40:00,
2013-10-12 05:45:00,46.8,38.9,30.48,NW,305,3.0,15.0,74,0.00,,,0.00,Wunderground v.1.15,2013-10-12 08:45:00,
2013-10-12 05:50:00,46.9,39.7,30.49,NW,304,3.0,15.0,76,0.00,,,0.00,Wunderground v.1.15,2013-10-12 08:50:00,
2013-10-12 06:00:00,46.5,39.0,30.49,NW,304,2.0,15.0,75,0.00,,,0.00,Wunderground v.1.15,2013-10-12 09:00:00,
2013-10-12 06:05:00,46.4,38.9,30.49,NW,311,2.0,15.0,75,0.00,,,0.00,Wunderground v.1.15,2013-10-12 09:05:00,
2013-10-12 06:10:00,46.3,38.8,30.49,NW,307,2.0,15.0,75,0.00,,,0.00,Wunderground v.1.15,2013-10-12 09:10:00,
2013-10-12 06:15:00,46.2,38.4,30.49,NW,315,3.0,15.0,74,0.00,,,0.00,Wunderground v.1.15,2013-10-12 09:15:00,
2013-10-12 06:20:00,46.3,38.1,30.49,NW,307,3.0,3.0,73,0.00,,,0.00,Wunderground v.1.15,2013-10-12 09:20:00,
2013-10-12 06:30:00,46.2,38.0,30.49,NW,304,3.0,15.0,73,0.00,,,0.00,Wunderground v.1.15,2013-10-12 09:30:00,
2013-10-12 06:35:00,46.1,37.6,30.49,NW,313,3.0,15.0,72,0.00,,,0.00,Wunderground v.1.15,2013-10-12 09:35:00,
2013-10-12 06:40:00,46.1,37.6,30.50,North,353,3.0,15.0,72,0.00,,,0.00,Wunderground v.1.15,2013-10-12 09:40:00,
2013-10-12 06:45:00,45.9,37.4,30.49,NW,312,3.0,15.0,72,0.00,,,0.00,Wunderground v.1.15,2013-10-12 09:45:00,
2013-10-12 06:50:00,45.9,36.7,30.49,NW,311,3.0,15.0,70,0.00,,,0.00,Wunderground v.1.15,2013-10-12 09:50:00,
2013-10-12 06:55:00,45.9,37.4,30.50,NNW,327,3.0,15.0,72,0.00,,,0.00,Wunderground v.1.15,2013-10-12 09:55:00,
2013-10-12 07:05:00,45.7,36.8,30.50,WNW,303,3.0,4.0,71,0.00,,,0.00,Wunderground v.1.15,2013-10-12 10:05:00,
2013-10-12 07:10:00,45.8,37.6,30.50,SSW,200,3.0,15.0,73,0.00,,,0.00,Wunderground v.1.15,2013-10-12 10:10:00,
2013-10-12 07:15:00,45.9,37.7,30.50,North,358,3.0,15.0,73,0.00,,,0.00,Wunderground v.1.15,2013-10-12 10:15:00,
2013-10-12 07:20:00,45.9,37.7,30.50,NNW,338,3.0,15.0,73,0.00,,,0.00,Wunderground v.1.15,2013-10-12 10:20:00,
2013-10-12 07:25:00,45.8,37.3,30.50,NW,319,4.0,15.0,72,0.00,,,0.00,Wunderground v.1.15,2013-10-12 10:25:00,
2013-10-12 07:35:00,45.9,38.1,30.51,NW,304,4.0,15.0,74,0.00,,,0.00,Wunderground v.1.15,2013-10-12 10:35:00,
2013-10-12 07:40:00,45.9,37.7,30.51,WNW,288,4.0,15.0,73,0.00,,,0.00,Wunderground v.1.15,2013-10-12 10:40:00,
2013-10-12 07:45:00,45.8,37.3,30.51,NW,311,4.0,15.0,72,0.00,,,0.00,Wunderground v.1.15,2013-10-12 10:45:00,
2013-10-12 07:50:00,45.7,37.5,30.51,NNW,342,3.0,15.0,73,0.00,,,0.00,Wunderground v.1.15,2013-10-12 10:50:00,
2013-10-12 07:55:00,45.7,37.2,30.51,NW,307,3.0,15.0,72,0.00,,,0.00,Wunderground v.1.15,2013-10-12 10:55:00,
2013-10-12 08:00:00,46.0,37.5,30.52,NW,308,3.0,3.0,72,0.00,,,0.00,Wunderground v.1.15,2013-10-12 11:00:00,
2013-10-12 08:05:00,45.9,37.0,30.52,NW,323,3.0,6.0,71,0.00,,,0.00,Wunderground v.1.15,2013-10-12 11:05:00,
2013-10-12 08:10:00,45.9,37.0,30.52,NW,305,3.0,3.0,71,0.00,,,0.00,Wunderground v.1.15,2013-10-12 11:10:00,
2013-10-12 08:15:00,45.9,37.0,30.52,West,269,3.0,15.0,71,0.00,,,0.00,Wunderground v.1.15,2013-10-12 11:15:00,
2013-10-12 08:25:00,46.1,37.2,30.53,NW,311,3.0,15.0,71,0.00,,,0.00,Wunderground v.1.15,2013-10-12 11:25:00,
2013-10-12 08:30:00,46.3,37.8,30.53,NW,305,3.0,15.0,72,0.00,,,0.00,Wunderground v.1.15,2013-10-12 11:30:00,
2013-10-12 08:35:00,46.6,38.4,30.53,NW,315,3.0,15.0,73,0.00,,,0.00,Wunderground v.1.15,2013-10-12 11:35:00,
2013-10-12 08:40:00,46.7,38.1,30.53,NNW,328,3.0,15.0,72,0.00,,,0.00,Wunderground v.1.15,2013-10-12 11:40:00,
2013-10-12 08:45:00,46.4,37.9,30.53,NW,308,4.0,15.0,72,0.00,,,0.00,Wunderground v.1.15,2013-10-12 11:45:00,
2013-10-12 08:50:00,46.3,37.8,30.53,WNW,300,3.0,3.0,72,0.00,,,0.00,Wunderground v.1.15,2013-10-12 11:50:00,
2013-10-12 08:55:00,46.4,37.5,30.53,WNW,298,3.0,15.0,71,0.00,,,0.00,Wunderground v.1.15,2013-10-12 11:55:00,
2013-10-12 09:00:00,46.9,38.0,30.53,NW,305,3.0,3.0,71,0.00,,,0.00,Wunderground v.1.15,2013-10-12 12:00:00,
2013-10-12 09:10:00,47.3,37.6,30.53,NW,321,4.0,15.0,69,0.00,,,0.00,Wunderground v.1.15,2013-10-12 12:10:00,
2013-10-12 09:15:00,47.7,38.0,30.53,NW,304,4.0,15.0,69,0.00,,,0.00,Wunderground v.1.15,2013-10-12 12:15:00,
2013-10-12 09:20:00,47.2,36.4,30.54,NW,314,4.0,4.0,66,0.00,,,0.00,Wunderground v.1.15,2013-10-12 12:20:00,
2013-10-12 09:25:00,46.9,37.3,30.53,WNW,297,4.0,15.0,69,0.00,,,0.00,Wunderground v.1.15,2013-10-12 12:25:00,
2013-10-12 09:30:00,47.0,37.4,30.53,NW,316,4.0,15.0,69,0.00,,,0.00,Wunderground v.1.15,2013-10-12 12:30:00,
2013-10-12 09:35:00,46.5,36.5,30.54,NW,307,4.0,15.0,68,0.00,,,0.00,Wunderground v.1.15,2013-10-12 12:35:00,
2013-10-12 09:45:00,47.5,38.2,30.54,West,273,3.0,15.0,70,0.00,,,0.00,Wunderground v.1.15,2013-10-12 12:45:00,
2013-10-12 09:50:00,48.1,37.7,30.54,NW,308,3.0,3.0,67,0.00,,,0.00,Wunderground v.1.15,2013-10-12 12:50:00,
2013-10-12 09:55:00,47.7,37.3,30.54,NW,315,3.0,15.0,67,0.00,,,0.00,Wunderground v.1.15,2013-10-12 12:55:00,
2013-10-12 10:00:00,47.3,37.3,30.54,NW,326,3.0,3.0,68,0.00,,,0.00,Wunderground v.1.15,2013-10-12 13:00:00,
2013-10-12 10:05:00,47.3,38.0,30.54,WNW,300,4.0,4.0,70,0.00,,,0.00,Wunderground v.1.15,2013-10-12 13:05:00,
2013-10-12 10:15:00,48.6,39.3,30.54,NW,314,3.0,15.0,70,0.00,,,0.00,Wunderground v.1.15,2013-10-12 13:15:00,
2013-10-12 10:20:00,49.1,39.7,30.55,NW,318,3.0,15.0,70,0.00,,,0.00,Wunderground v.1.15,2013-10-12 13:20:00,
2013-10-12 10:25:00,48.9,39.2,30.55,NNW,329,3.0,15.0,69,0.00,,,0.00,Wunderground v.1.15,2013-10-12 13:25:00,
2013-10-12 10:30:00,48.7,38.6,30.55,NW,316,3.0,15.0,68,0.00,,,0.00,Wunderground v.1.15,2013-10-12 13:30:00,
2013-10-12 10:35:00,48.3,37.8,30.55,NW,309,3.0,15.0,67,0.00,,,0.00,Wunderground v.1.15,2013-10-12 13:35:00,
2013-10-12 10:40:00,48.3,38.2,30.55,WNW,301,3.0,3.0,68,0.00,,,0.00,Wunderground v.1.15,2013-10-12 13:40:00,
2013-10-12 10:50:00,48.4,37.2,30.55,NW,312,3.0,15.0,65,0.00,,,0.00,Wunderground v.1.15,2013-10-12 13:50:00,
2013-10-12 10:55:00,47.9,37.1,30.56,NW,314,3.0,15.0,66,0.00,,,0.00,Wunderground v.1.15,2013-10-12 13:55:00,
2013-10-12 11:00:00,48.0,37.6,30.56,NW,315,3.0,15.0,67,0.00,,,0.00,Wunderground v.1.15,2013-10-12 14:00:00,
2013-10-12 11:05:00,48.7,37.8,30.56,NW,311,3.0,15.0,66,0.00,,,0.00,Wunderground v.1.15,2013-10-12 14:05:00,
2013-10-12 11:10:00,48.3,36.7,30.56,NW,311,3.0,15.0,64,0.00,,,0.00,Wunderground v.1.15,2013-10-12 14:10:00,
2013-10-12 11:20:00,47.8,37.4,30.56,NE,39,3.0,3.0,67,0.00,,,0.00,Wunderground v.1.15,2013-10-12 14:20:00,
2013-10-12 11:25:00,48.5,38.8,30.56,NW,316,2.0,5.0,69,0.00,,,0.00,Wunderground v.1.15,2013-10-12 14:25:00,
2013-10-12 11:30:00,48.8,37.6,30.56,NW,308,3.0,3.0,65,0.00,,,0.00,Wunderground v.1.15,2013-10-12 14:30:00,
2013-10-12 11:35:00,49.4,38.1,30.56,NW,326,3.0,4.0,65,0.00,,,0.00,Wunderground v.1.15,2013-10-12 14:35:00,
2013-10-12 11:40:00,49.7,38.4,30.56,WNW,293,2.0,2.0,65,0.00,,,0.00,Wunderground v.1.15,2013-10-12 14:40:00,
2013-10-12 11:45:00,49.2,37.1,30.56,NW,317,2.0,3.0,63,0.00,,,0.00,Wunderground v.1.15,2013-10-12 14:45:00,
2013-10-12 11:55:00,49.1,36.6,30.57,NW,312,3.0,15.0,62,0.00,,,0.00,Wunderground v.1.15,2013-10-12 14:55:00,
2013-10-12 12:00:00,49.2,38.3,30.57,WNW,290,3.0,3.0,66,0.00,,,0.00,Wunderground v.1.15,2013-10-12 15:00:00,
2013-10-12 12:05:00,49.3,37.2,30.57,WNW,295,3.0,15.0,63,0.00,,,0.00,Wunderground v.1.15,2013-10-12 15:05:00,
2013-10-12 12:10:00,49.3,38.4,30.57,WNW,299,2.0,2.0,66,0.00,,,0.00,Wunderground v.1.15,2013-10-12 15:10:00,
2013-10-12 12:15:00,49.2,37.9,30.57,NW,322,2.0,5.0,65,0.00,,,0.00,Wunderground v.1.15,2013-10-12 15:15:00,
2013-10-12 12:20:00,48.7,37.1,30.57,NW,312,2.0,15.0,64,0.00,,,0.00,Wunderground v.1.15,2013-10-12 15:20:00,
2013-10-12 12:25:00,48.3,36.7,30.57,WSW,253,2.0,15.0,64,0.00,,,0.00,Wunderground v.1.15,2013-10-12 15:25:00,
2013-10-12 12:35:00,47.9,37.1,30.57,NW,311,3.0,15.0,66,0.00,,,0.00,Wunderground v.1.15,2013-10-12 15:35:00,
2013-10-12 12:40:00,47.7,37.3,30.57,West,278,2.0,15.0,67,0.00,,,0.00,Wunderground v.1.15,2013-10-12 15:40:00,
2013-10-12 12:45:00,47.8,37.7,30.57,NW,311,2.0,15.0,68,0.00,,,0.00,Wunderground v.1.15,2013-10-12 15:45:00,
2013-10-12 12:50:00,48.4,38.3,30.57,WNW,293,2.0,2.0,68,0.00,,,0.00,Wunderground v.1.15,2013-10-12 15:50:00,
2013-10-12 12:55:00,48.6,38.1,30.57,NW,312,2.0,15.0,67,0.00,,,0.00,Wunderground v.1.15,2013-10-12 15:55:00,
2013-10-12 13:00:00,48.4,37.2,30.56,WNW,297,2.0,2.0,65,0.00,,,0.00,Wunderground v.1.15,2013-10-12 16:00:00,
2013-10-12 13:05:00,48.2,37.8,30.56,NW,308,2.0,15.0,67,0.00,,,0.00,Wunderground v.1.15,2013-10-12 16:05:00,
2013-10-12 13:10:00,48.2,37.0,30.56,NNW,329,3.0,15.0,65,0.00,,,0.00,Wunderground v.1.15,2013-10-12 16:10:00,
2013-10-12 13:15:00,47.7,36.5,30.56,NNW,329,2.0,15.0,65,0.00,,,0.00,Wunderground v.1.15,2013-10-12 16:15:00,
2013-10-12 13:20:00,47.4,36.6,30.56,WNW,301,2.0,15.0,66,0.00,,,0.00,Wunderground v.1.15,2013-10-12 16:20:00,
2013-10-12 13:30:00,47.7,36.9,30.56,NW,325,2.0,15.0,66,0.00,,,0.00,Wunderground v.1.15,2013-10-12 16:30:00,
2013-10-12 13:35:00,48.1,36.5,30.56,WNW,301,2.0,15.0,64,0.00,,,0.00,Wunderground v.1.15,2013-10-12 16:35:00,
2013-10-12 13:40:00,48.6,37.4,30.56,NW,317,2.0,2.0,65,0.00,,,0.00,Wunderground v.1.15,2013-10-12 16:40:00,
2013-10-12 13:45:00,48.5,37.3,30.56,NW,319,2.0,3.0,65,0.00,,,0.00,Wunderground v.1.15,2013-10-12 16:45:00,
2013-10-12 13:50:00,48.3,37.8,30.55,WSW,239,2.0,2.0,67,0.00,,,0.00,Wunderground v.1.15,2013-10-12 16:50:00,
2013-10-12 14:00:00,48.3,37.5,30.56,NW,304,2.0,15.0,66,0.00,,,0.00,Wunderground v.1.15,2013-10-12 17:00:00,
2013-10-12 14:05:00,47.8,37.0,30.55,NW,316,2.0,15.0,66,0.00,,,0.00,Wunderground v.1.15,2013-10-12 17:05:00,
2013-10-12 14:10:00,47.5,37.1,30.55,WNW,290,2.0,15.0,67,0.00,,,0.00,Wunderground v.1.15,2013-10-12 17:10:00,
2013-10-12 14:15:00,47.2,36.8,30.55,NW,308,3.0,15.0,67,0.00,,,0.00,Wunderground v.1.15,2013-10-12 17:15:00,
2013-10-12 14:20:00,47.2,36.8,30.55,NW,306,3.0,3.0,67,0.00,,,0.00,Wunderground v.1.15,2013-10-12 17:20:00,
2013-10-12 14:25:00,47.3,36.9,30.55,NNW,335,2.0,15.0,67,0.00,,,0.00,Wunderground v.1.15,2013-10-12 17:25:00,
2013-10-12 14:35:00,47.2,36.8,30.55,NW,313,2.0,15.0,67,0.00,,,0.00,Wunderground v.1.15,2013-10-12 17:35:00,
2013-10-12 14:40:00,47.4,37.4,30.55,NW,314,1.0,15.0,68,0.00,,,0.00,Wunderground v.1.15,2013-10-12 17:40:00,
2013-10-12 14:45:00,47.3,36.5,30.55,NE,44,1.0,15.0,66,0.00,,,0.00,Wunderground v.1.15,2013-10-12 17:45:00,
2013-10-12 14:50:00,47.3,37.3,30.55,NW,308,2.0,15.0,68,0.00,,,0.00,Wunderground v.1.15,2013-10-12 17:50:00,
2013-10-12 14:55:00,47.3,37.3,30.56,WNW,302,2.0,15.0,68,0.00,,,0.00,Wunderground v.1.15,2013-10-12 17:55:00,
2013-10-12 15:05:00,47.0,36.2,30.56,NNW,340,2.0,15.0,66,0.00,,,0.00,Wunderground v.1.15,2013-10-12 18:05:00,
2013-10-12 15:10:00,46.8,36.8,30.56,NW,304,2.0,2.0,68,0.00,,,0.00,Wunderground v.1.15,2013-10-12 18:10:00,
2013-10-12 15:15:00,46.9,36.9,30.56,West,270,2.0,15.0,68,0.00,,,0.00,Wunderground v.1.15,2013-10-12 18:15:00,
2013-10-12 15:20:00,46.8,36.4,30.56,WNW,291,2.0,15.0,67,0.00,,,0.00,Wunderground v.1.15,2013-10-12 18:20:00,
2013-10-12 15:25:00,46.8,36.8,30.56,NW,304,2.0,15.0,68,0.00,,,0.00,Wunderground v.1.15,2013-10-12 18:25:00,
2013-10-12 15:30:00,46.8,36.4,30.56,West,280,2.0,2.0,67,0.00,,,0.00,Wunderground v.1.15,2013-10-12 18:30:00,
2013-10-12 15:40:00,46.7,36.3,30.56,WNW,298,2.0,2.0,67,0.00,,,0.00,Wunderground v.1.15,2013-10-12 18:40:00,
2013-10-12 15:45:00,46.7,36.3,30.56,NW,311,2.0,15.0,67,0.00,,,0.00,Wunderground v.1.15,2013-10-12 18:45:00,
2013-10-12 15:50:00,46.8,36.8,30.56,NW,311,2.0,15.0,68,0.00,,,0.00,Wunderground v.1.15,2013-10-12 18:50:00,
2013-10-12 15:55:00,46.9,36.1,30.56,NW,304,2.0,15.0,66,0.00,,,0.00,Wunderground v.1.15,2013-10-12 18:55:00,
2013-10-12 16:00:00,46.8,36.0,30.56,WSW,252,2.0,2.0,66,0.00,,,0.00,Wunderground v.1.15,2013-10-12 19:00:00,
2013-10-12 16:10:00,46.5,35.4,30.56,WNW,301,2.0,15.0,65,0.00,,,0.00,Wunderground v.1.15,2013-10-12 19:10:00,
2013-10-12 16:15:00,46.3,35.2,30.56,NNW,332,1.0,15.0,65,0.00,,,0.00,Wunderground v.1.15,2013-10-12 19:15:00,
2013-10-12 16:20:00,46.4,35.7,30.56,NW,304,1.0,1.0,66,0.00,,,0.00,Wunderground v.1.15,2013-10-12 19:20:00,
2013-10-12 16:25:00,46.6,36.2,30.56,West,280,1.0,15.0,67,0.00,,,0.00,Wunderground v.1.15,2013-10-12 19:25:00,
2013-10-12 16:30:00,46.7,36.7,30.56,WNW,300,1.0,15.0,68,0.00,,,0.00,Wunderground v.1.15,2013-10-12 19:30:00,
2013-10-12 16:35:00,46.7,35.9,30.56,NW,319,2.0,15.0,66,0.00,,,0.00,Wunderground v.1.15,2013-10-12 19:35:00,
2013-10-12 16:40:00,46.5,36.5,30.56,WNW,300,1.0,15.0,68,0.00,,,0.00,Wunderground v.1.15,2013-10-12 19:40:00,
2013-10-12 16:45:00,46.4,36.0,30.56,NW,311,1.0,15.0,67,0.00,,,0.00,Wunderground v.1.15,2013-10-12 19:45:00,
2013-10-12 16:50:00,46.3,35.9,30.56,NW,311,1.0,15.0,67,0.00,,,0.00,Wunderground v.1.15,2013-10-12 19:50:00,
2013-10-12 16:55:00,46.4,36.4,30.56,WNW,295,1.0,15.0,68,0.00,,,0.00,Wunderground v.1.15,2013-10-12 19:55:00,
2013-10-12 17:00:00,46.3,35.9,30.56,WNW,300,1.0,15.0,67,0.00,,,0.00,Wunderground v.1.15,2013-10-12 20:00:00,
2013-10-12 17:05:00,46.1,35.7,30.56,NW,307,2.0,15.0,67,0.00,,,0.00,Wunderground v.1.15,2013-10-12 20:05:00,
2013-10-12 17:15:00,46.0,36.0,30.57,West,281,1.0,15.0,68,0.00,,,0.00,Wunderground v.1.15,2013-10-12 20:15:00,
2013-10-12 17:20:00,46.2,35.8,30.57,NW,309,1.0,1.0,67,0.00,,,0.00,Wunderground v.1.15,2013-10-12 20:20:00,
2013-10-12 17:25:00,46.0,35.7,30.57,WNW,297,1.0,15.0,67,0.00,,,0.00,Wunderground v.1.15,2013-10-12 20:25:00,
2013-10-12 17:30:00,45.9,35.9,30.57,West,281,1.0,15.0,68,0.00,,,0.00,Wunderground v.1.15,2013-10-12 20:30:00,
2013-10-12 17:35:00,45.8,36.2,30.57,NW,305,1.0,15.0,69,0.00,,,0.00,Wunderground v.1.15,2013-10-12 20:35:00,
2013-10-12 17:45:00,45.8,36.9,30.57,WNW,297,1.0,15.0,71,0.00,,,0.00,Wunderground v.1.15,2013-10-12 20:45:00,
2013-10-12 17:50:00,45.7,36.5,30.57,NW,307,1.0,1.0,70,0.00,,,0.00,Wunderground v.1.15,2013-10-12 20:50:00,
2013-10-12 17:55:00,45.7,36.1,30.56,WNW,288,1.0,15.0,69,0.00,,,0.00,Wunderground v.1.15,2013-10-12 20:55:00,
2013-10-12 18:00:00,45.5,35.9,30.56,WNW,288,1.0,1.0,69,0.00,,,0.00,Wunderground v.1.15,2013-10-12 21:00:00,
2013-10-12 18:10:00,45.1,35.9,30.56,WNW,293,0.0,15.0,70,0.00,,,0.00,Wunderground v.1.15,2013-10-12 21:10:00,
2013-10-12 18:15:00,44.9,36.1,30.56,WNW,296,0.0,15.0,71,0.00,,,0.00,Wunderground v.1.15,2013-10-12 21:15:00,
2013-10-12 18:25:00,44.2,35.4,30.56,WNW,283,1.0,15.0,71,0.00,,,0.00,Wunderground v.1.15,2013-10-12 21:25:00,
2013-10-12 18:30:00,43.9,35.1,30.56,WNW,283,1.0,1.0,71,0.00,,,0.00,Wunderground v.1.15,2013-10-12 21:30:00,
2013-10-12 18:35:00,43.5,35.1,30.56,NW,307,1.0,15.0,72,0.00,,,0.00,Wunderground v.1.15,2013-10-12 21:35:00,
2013-10-12 18:40:00,43.1,35.0,30.57,NW,307,0.0,15.0,73,0.00,,,0.00,Wunderground v.1.15,2013-10-12 21:40:00,
2013-10-12 18:45:00,42.5,34.8,30.57,NW,307,0.0,15.0,74,0.00,,,0.00,Wunderground v.1.15,2013-10-12 21:45:00,
2013-10-12 18:50:00,41.8,34.5,30.57,NW,307,0.0,15.0,75,0.00,,,0.00,Wunderground v.1.15,2013-10-12 21:50:00,
2013-10-12 18:55:00,41.3,34.3,30.57,NW,307,0.0,15.0,76,0.00,,,0.00,Wunderground v.1.15,2013-10-12 21:55:00,
2013-10-12 19:00:00,40.9,34.2,30.57,NW,307,0.0,15.0,77,0.00,,,0.00,Wunderground v.1.15,2013-10-12 22:00:00,
2013-10-12 19:05:00,40.6,34.3,30.57,NW,307,0.0,15.0,78,0.00,,,0.00,Wunderground v.1.15,2013-10-12 22:05:00,
2013-10-12 19:10:00,40.3,34.3,30.57,NW,308,0.0,15.0,79,0.00,,,0.00,Wunderground v.1.15,2013-10-12 22:10:00,
2013-10-12 19:15:00,40.0,34.3,30.57,NW,308,0.0,15.0,80,0.00,,,0.00,Wunderground v.1.15,2013-10-12 22:15:00,
2013-10-12 19:25:00,39.3,34.3,30.57,NW,308,0.0,15.0,82,0.00,,,0.00,Wunderground v.1.15,2013-10-12 22:25:00,
2013-10-12 19:30:00,39.1,34.4,30.57,NW,308,0.0,15.0,83,0.00,,,0.00,Wunderground v.1.15,2013-10-12 22:30:00,
2013-10-12 19:35:00,38.7,34.3,30.57,NE,54,0.0,15.0,84,0.00,,,0.00,Wunderground v.1.15,2013-10-12 22:35:00,
2013-10-12 19:40:00,38.1,34.0,30.57,NE,54,0.0,15.0,85,0.00,,,0.00,Wunderground v.1.15,2013-10-12 22:40:00,
2013-10-12 19:45:00,37.8,34.0,30.57,NE,54,0.0,15.0,86,0.00,,,0.00,Wunderground v.1.15,2013-10-12 22:45:00,
2013-10-12 19:55:00,37.5,34.0,30.57,NE,54,0.0,15.0,87,0.00,,,0.00,Wunderground v.1.15,2013-10-12 22:55:00,
2013-10-12 20:00:00,37.3,34.1,30.57,SSE,155,0.0,15.0,88,0.00,,,0.00,Wunderground v.1.15,2013-10-12 23:00:00,
2013-10-12 20:05:00,37.2,34.0,30.57,SSE,155,0.0,15.0,88,0.00,,,0.00,Wunderground v.1.15,2013-10-12 23:05:00,
2013-10-12 20:10:00,37.1,34.2,30.58,SSE,155,0.0,15.0,89,0.00,,,0.00,Wunderground v.1.15,2013-10-12 23:10:00,
2013-10-12 20:15:00,37.1,34.2,30.58,SSE,155,0.0,15.0,89,0.00,,,0.00,Wunderground v.1.15,2013-10-12 23:15:00,
2013-10-12 20:20:00,37.1,34.4,30.58,SSW,196,0.0,15.0,90,0.00,,,0.00,Wunderground v.1.15,2013-10-12 23:20:00,
2013-10-12 20:30:00,37.4,34.7,30.57,South,180,0.0,15.0,90,0.00,,,0.00,Wunderground v.1.15,2013-10-12 23:30:00,
2013-10-12 20:35:00,37.2,34.3,30.58,South,179,0.0,15.0,89,0.00,,,0.00,Wunderground v.1.15,2013-10-12 23:35:00,
2013-10-12 20:40:00,37.1,34.2,30.57,South,180,0.0,15.0,89,0.00,,,0.00,Wunderground v.1.15,2013-10-12 23:40:00,
2013-10-12 20:45:00,37.1,34.2,30.58,South,180,0.0,15.0,89,0.00,,,0.00,Wunderground v.1.15,2013-10-12 23:45:00,
2013-10-12 20:50:00,36.8,33.6,30.58,South,181,0.0,15.0,88,0.00,,,0.00,Wunderground v.1.15,2013-10-12 23:50:00,
2013-10-12 21:00:00,36.1,33.2,30.58,South,181,0.0,15.0,89,0.00,,,0.00,Wunderground v.1.15,2013-10-13 00:00:00,
2013-10-12 21:05:00,35.8,32.9,30.58,South,179,0.0,15.0,89,0.00,,,0.00,Wunderground v.1.15,2013-10-13 00:05:00,
2013-10-12 21:10:00,35.6,33.0,30.59,South,181,0.0,15.0,90,0.00,,,0.00,Wunderground v.1.15,2013-10-13 00:10:00,
2013-10-12 21:15:00,35.2,32.6,30.59,South,180,0.0,15.0,90,0.00,,,0.00,Wunderground v.1.15,2013-10-13 00:15:00,
2013-10-12 21:20:00,35.0,32.4,30.59,South,181,0.0,15.0,90,0.00,,,0.00,Wunderground v.1.15,2013-10-13 00:20:00,
2013-10-12 21:25:00,34.6,32.0,30.58,South,179,0.0,15.0,90,0.00,,,0.00,Wunderground v.1.15,2013-10-13 00:25:00,
2013-10-12 21:35:00,34.1,31.7,30.58,South,180,0.0,15.0,91,0.00,,,0.00,Wunderground v.1.15,2013-10-13 00:35:00,
2013-10-12 21:40:00,34.0,31.6,30.58,South,179,0.0,15.0,91,0.00,,,0.00,Wunderground v.1.15,2013-10-13 00:40:00,
2013-10-12 21:45:00,33.7,31.4,30.58,South,180,0.0,15.0,91,0.00,,,0.00,Wunderground v.1.15,2013-10-13 00:45:00,
2013-10-12 21:50:00,33.6,31.5,30.58,South,180,0.0,15.0,92,0.00,,,0.00,Wunderground v.1.15,2013-10-13 00:50:00,
2013-10-12 21:55:00,33.3,31.2,30.58,South,180,0.0,15.0,92,0.00,,,0.00,Wunderground v.1.15,2013-10-13 00:55:00,
2013-10-12 22:05:00,32.7,30.6,30.59,South,180,0.0,15.0,92,0.00,,,0.00,Wunderground v.1.15,2013-10-13 01:05:00,
2013-10-12 22:10:00,32.7,30.6,30.59,South,180,0.0,15.0,92,0.00,,,0.00,Wunderground v.1.15,2013-10-13 01:10:00,
2013-10-12 22:15:00,32.8,31.0,30.59,SSW,193,0.0,15.0,93,0.00,,,0.00,Wunderground v.1.15,2013-10-13 01:15:00,
2013-10-12 22:20:00,32.8,31.0,30.59,SSW,193,0.0,15.0,93,0.00,,,0.00,Wunderground v.1.15,2013-10-13 01:20:00,
2013-10-12 22:25:00,32.7,30.9,30.59,SSW,193,0.0,15.0,93,0.00,,,0.00,Wunderground v.1.15,2013-10-13 01:25:00,
2013-10-12 22:30:00,32.7,30.9,30.59,SSW,193,0.0,15.0,93,0.00,,,0.00,Wunderground v.1.15,2013-10-13 01:30:00,
2013-10-12 22:40:00,32.4,30.6,30.59,SSW,193,0.0,15.0,93,0.00,,,0.00,Wunderground v.1.15,2013-10-13 01:40:00,
2013-10-12 22:45:00,32.2,30.4,30.59,SSW,193,0.0,15.0,93,0.00,,,0.00,Wunderground v.1.15,2013-10-13 01:45:00,
2013-10-12 22:50:00,32.0,30.2,30.59,SSW,193,0.0,15.0,93,0.00,,,0.00,Wunderground v.1.15,2013-10-13 01:50:00,
2013-10-12 22:55:00,31.9,30.1,30.59,South,183,0.0,15.0,93,0.00,,,0.00,Wunderground v.1.15,2013-10-13 01:55:00,
2013-10-12 23:00:00,31.8,30.0,30.59,South,183,0.0,15.0,93,0.00,,,0.00,Wunderground v.1.15,2013-10-13 02:00:00,
2013-10-12 23:10:00,31.8,30.3,30.58,South,183,0.0,15.0,94,0.00,,,0.00,Wunderground v.1.15,2013-10-13 02:10:00,
2013-10-12 23:15:00,31.8,30.3,30.58,South,183,0.0,15.0,94,0.00,,,0.00,Wunderground v.1.15,2013-10-13 02:15:00,
2013-10-12 23:20:00,31.5,29.7,30.58,South,183,0.0,15.0,93,0.00,,,0.00,Wunderground v.1.15,2013-10-13 02:20:00,
2013-10-12 23:25:00,31.3,29.5,30.58,South,183,0.0,15.0,93,0.00,,,0.00,Wunderground v.1.15,2013-10-13 02:25:00,
2013-10-12 23:30:00,31.0,29.2,30.58,South,183,0.0,15.0,93,0.00,,,0.00,Wunderground v.1.15,2013-10-13 02:30:00,
2013-10-12 23:35:00,30.8,29.3,30.59,South,183,0.0,15.0,94,0.00,,,0.00,Wunderground v.1.15,2013-10-13 02:35:00,
2013-10-12 23:40:00,30.7,29.2,30.59,South,183,0.0,15.0,94,0.00,,,0.00,Wunderground v.1.15,2013-10-13 02:40:00,
2013-10-12 23:45:00,30.5,29.0,30.59,ESE,108,0.0,15.0,94,0.00,,,0.00,Wunderground v.1.15,2013-10-13 02:45:00,
2013-10-12 23:50:00,30.2,28.4,30.59,ESE,109,0.0,15.0,93,0.00,,,0.00,Wunderground v.1.15,2013-10-13 02:50:00,
2013-10-12 23:55:00,30.0,28.5,30.59,SE,142,0.0,15.0,94,0.00,,,0.00,Wunderground v.1.15,2013-10-13 02:55:00,